Time;durP1;ratioP1;P1;durP2;ratioP2;P2;SDS_P1;SDS_P2;PMS_P1;PMS_P2;Temp;Humidity;BMP_temperature;BMP_pressure;BME280_temperature;BME280_humidity;BME280_pressure;Samples;Min_cycle;Max_cycle;Signal;HPM_P1;HPM_P2
2023/09/20 00:00:54;;;;;;;6.90;3.13;;;;;;;18.40;97.29;95064.63;4803624;29;20203;-67
2023/09/20 00:03:19;;;;;;;2.90;2.40;;;;;;;18.31;97.41;95058.13;4803461;29;20179;-67
2023/09/20 00:05:47;;;;;;;4.10;2.28;;;;;;;18.31;97.76;95065.34;4803645;29;20543;-67
2023/09/20 00:23:21;;;;;;;5.70;3.40;;;;;;;18.14;98.51;95064.63;5087031;27;20555;-69
2023/09/20 00:25:49;;;;;;;5.93;3.40;;;;;;;18.18;98.31;95069.19;5087249;28;20166;-69
2023/09/20 00:28:17;;;;;;;4.97;3.22;;;;;;;18.20;97.86;95072.41;5087091;28;20292;-69
2023/09/20 00:30:44;;;;;;;5.93;3.60;;;;;;;18.16;97.03;95052.69;5086964;28;20215;-69
2023/09/20 00:33:10;;;;;;;7.43;3.75;;;;;;;18.22;96.84;95078.31;5087207;28;20604;-69
2023/09/20 00:35:39;;;;;;;6.93;3.38;;;;;;;18.24;96.39;95080.72;5087064;28;20201;-69
2023/09/20 00:38:04;;;;;;;5.35;3.45;;;;;;;18.08;96.25;95056.59;5086520;28;20186;-69
2023/09/20 00:40:32;;;;;;;6.45;3.67;;;;;;;18.14;96.71;95070.78;5086920;28;20177;-69
2023/09/20 00:42:58;;;;;;;6.43;4.43;;;;;;;18.05;97.29;95061.63;5086904;28;20260;-69
2023/09/20 00:45:23;;;;;;;9.02;5.68;;;;;;;18.00;98.22;95054.38;5086862;28;20617;-69
2023/09/20 00:47:56;;;;;;;7.10;6.32;;;;;;;18.09;99.51;95065.38;5086887;28;20302;-69
2023/09/20 00:50:22;;;;;;;9.07;5.95;;;;;;;18.13;99.76;95055.84;5086824;28;20166;-69
2023/09/20 00:52:53;;;;;;;8.15;5.38;;;;;;;18.17;99.79;95053.47;5086623;28;20193;-69
2023/09/20 00:55:23;;;;;;;8.43;6.50;;;;;;;18.22;100.00;95061.50;5086679;28;20635;-69
2023/09/20 00:57:52;;;;;;;8.95;6.22;;;;;;;18.23;99.96;95057.81;5085354;28;20185;-69
2023/09/20 01:00:26;;;;;;;11.52;6.88;;;;;;;18.06;100.00;95033.94;5086623;28;20172;-69
2023/09/20 01:02:55;;;;;;;12.45;7.32;;;;;;;18.20;100.00;95056.44;5086434;28;20178;-69
2023/09/20 01:05:21;;;;;;;16.05;9.30;;;;;;;18.23;100.00;95063.13;5086552;28;20178;-69
2023/09/20 01:07:57;;;;;;;10.93;7.93;;;;;;;18.22;100.00;95066.84;5086067;28;20252;-69
2023/09/20 01:10:24;;;;;;;15.85;8.75;;;;;;;18.22;100.00;95070.31;5086323;28;20177;-69
2023/09/20 01:12:54;;;;;;;15.30;9.48;;;;;;;18.13;100.00;95042.53;5086334;28;20528;-69
2023/09/20 01:15:23;;;;;;;14.63;10.23;;;;;;;18.17;100.00;95050.78;5085903;28;20423;-69
2023/09/20 01:17:50;;;;;;;12.23;8.77;;;;;;;18.22;100.00;95049.00;5086509;28;20224;-69
2023/09/20 01:20:20;;;;;;;14.27;9.60;;;;;;;18.26;100.00;95052.75;5086429;28;20413;-69
2023/09/20 01:22:47;;;;;;;14.68;9.45;;;;;;;18.29;100.00;95048.78;5081418;28;20206;-69
2023/09/20 01:25:21;;;;;;;15.88;9.95;;;;;;;18.20;100.00;95029.78;5070438;28;20182;-69
2023/09/20 01:27:47;;;;;;;13.80;9.23;;;;;;;18.34;100.00;95052.28;5072433;28;20175;-69
2023/09/20 01:30:12;;;;;;;14.13;8.93;;;;;;;18.31;100.00;95055.47;5072306;28;20275;-69
2023/09/20 01:32:37;;;;;;;12.30;9.02;;;;;;;18.32;100.00;95061.59;5072412;28;20190;-69
2023/09/20 01:35:04;;;;;;;14.77;9.13;;;;;;;18.23;100.00;95066.59;5072428;28;20178;-69
2023/09/20 01:37:30;;;;;;;16.20;10.48;;;;;;;18.07;100.00;95062.19;5072006;28;20406;-69
2023/09/20 01:39:57;;;;;;;15.75;10.43;;;;;;;18.01;100.00;95063.97;5072289;28;20260;-69
2023/09/20 01:42:22;;;;;;;12.68;9.02;;;;;;;18.04;100.00;95060.03;5072528;28;20235;-69
2023/09/20 01:44:49;;;;;;;14.02;9.35;;;;;;;18.05;100.00;95062.44;5072356;28;20182;-69
2023/09/20 01:47:15;;;;;;;12.52;9.23;;;;;;;18.02;100.00;95068.25;5072269;28;20363;-69
2023/09/20 01:49:41;;;;;;;13.07;8.95;;;;;;;18.01;100.00;95057.84;5072371;28;20182;-69
2023/09/20 01:52:06;;;;;;;12.18;8.48;;;;;;;18.03;99.44;95050.41;5072303;28;20259;-69
2023/09/20 01:54:32;;;;;;;14.68;9.43;;;;;;;18.02;99.28;95054.13;5072106;28;20174;-69
2023/09/20 01:56:58;;;;;;;15.23;9.80;;;;;;;17.89;99.40;95049.22;5071790;28;20931;-70
2023/09/20 01:59:23;;;;;;;16.00;9.50;;;;;;;17.88;99.78;95055.59;5071945;28;20606;-70
2023/09/20 02:01:49;;;;;;;13.00;8.95;;;;;;;17.92;99.81;95062.00;5072058;28;20521;-69
2023/09/20 02:04:20;;;;;;;16.93;10.50;;;;;;;17.85;99.98;95056.91;5071405;28;20402;-69
2023/09/20 02:06:46;;;;;;;14.80;8.63;;;;;;;17.87;100.00;95048.66;5071818;28;20186;-69
2023/09/20 02:09:13;;;;;;;19.23;9.70;;;;;;;17.90;100.00;95048.94;5071925;28;20266;-70
2023/09/20 02:11:38;;;;;;;14.52;9.57;;;;;;;17.96;100.00;95050.63;5071639;28;20565;-69
2023/09/20 02:14:04;;;;;;;13.38;9.20;;;;;;;17.98;100.00;95050.38;5071608;28;20289;-69
2023/09/20 02:16:32;;;;;;;16.88;9.80;;;;;;;18.02;99.81;95046.94;5071730;28;20170;-69
2023/09/20 02:18:58;;;;;;;15.32;8.95;;;;;;;18.04;100.00;95054.69;5071345;28;20198;-69
2023/09/20 02:21:23;;;;;;;19.08;9.35;;;;;;;18.05;99.89;95046.44;5071131;28;20249;-69
2023/09/20 02:23:51;;;;;;;14.85;9.07;;;;;;;18.07;99.80;95057.63;5071207;28;20178;-70
2023/09/20 02:26:18;;;;;;;15.55;8.68;;;;;;;18.09;100.00;95052.06;5071279;28;20170;-69
2023/09/20 02:28:44;;;;;;;16.60;10.13;;;;;;;18.12;99.64;95058.75;5071380;28;20661;-69
2023/09/20 02:31:11;;;;;;;13.88;9.18;;;;;;;18.13;99.77;95055.84;5069816;28;20286;-69
2023/09/20 02:33:36;;;;;;;20.00;9.73;;;;;;;18.10;99.91;95059.81;5071215;28;20179;-69
2023/09/20 02:36:03;;;;;;;16.75;9.73;;;;;;;18.10;99.90;95075.00;5070249;28;20178;-69
2023/09/20 02:38:28;;;;;;;19.70;11.45;;;;;;;17.98;99.91;95067.16;5070475;28;20920;-69
2023/09/20 02:40:56;;;;;;;15.32;9.15;;;;;;;17.91;100.00;95066.53;5069798;28;20258;-70
2023/09/20 02:43:21;;;;;;;16.27;10.93;;;;;;;17.82;100.00;95067.22;5070087;28;20410;-69
2023/09/20 02:45:47;;;;;;;15.00;10.05;;;;;;;17.84;100.00;95067.78;5071119;28;20205;-69
2023/09/20 02:48:12;;;;;;;22.23;9.38;;;;;;;17.90;100.00;95066.81;5071037;28;20196;-69
2023/09/20 02:50:41;;;;;;;15.43;9.80;;;;;;;17.92;99.81;95067.34;5070799;28;20652;-69
2023/09/20 02:53:07;;;;;;;15.63;9.05;;;;;;;17.77;99.55;95051.22;5071020;28;20174;-69
2023/09/20 02:55:34;;;;;;;15.75;9.15;;;;;;;17.90;99.52;95075.56;5070830;28;20646;-69
2023/09/20 02:57:59;;;;;;;16.02;10.25;;;;;;;17.89;99.83;95073.19;5070001;28;20489;-69
2023/09/20 03:00:31;;;;;;;14.73;9.63;;;;;;;17.91;99.65;95076.38;5070608;28;20675;-69
2023/09/20 03:03:00;;;;;;;14.30;8.85;;;;;;;17.92;99.03;95072.66;5070591;28;20201;-69
2023/09/20 03:05:32;;;;;;;20.00;9.25;;;;;;;17.93;99.06;95074.28;5070567;28;20171;-69
2023/09/20 03:07:58;;;;;;;14.55;9.52;;;;;;;17.92;99.28;95072.66;5070461;28;20626;-69
2023/09/20 03:10:24;;;;;;;14.27;9.20;;;;;;;17.95;99.11;95067.66;5070314;28;20203;-69
2023/09/20 03:12:51;;;;;;;15.52;9.40;;;;;;;17.95;99.43;95067.66;5070664;28;20191;-69
2023/09/20 03:15:21;;;;;;;18.85;9.77;;;;;;;17.95;100.00;95069.50;5070419;28;20551;-69
2023/09/20 03:17:52;;;;;;;14.32;8.88;;;;;;;17.99;99.75;95062.63;5070311;28;20178;-70
2023/09/20 03:20:25;;;;;;;14.57;8.88;;;;;;;18.02;99.82;95068.25;5070470;28;20689;-69
2023/09/20 03:22:57;;;;;;;16.92;9.80;;;;;;;17.91;99.62;95050.56;5070111;28;20246;-69
2023/09/20 03:25:24;;;;;;;18.65;9.05;;;;;;;17.95;100.00;95072.19;5070190;28;20178;-69
2023/09/20 03:27:50;;;;;;;16.25;7.80;;;;;;;17.92;99.89;95070.00;5070101;28;20402;-68
2023/09/20 03:30:16;;;;;;;13.80;7.80;;;;;;;17.89;99.44;95071.34;5070286;28;20174;-68
2023/09/20 03:32:49;;;;;;;16.27;8.75;;;;;;;17.67;99.71;95057.22;5069883;28;20621;-68
2023/09/20 03:35:16;;;;;;;13.88;7.80;;;;;;;17.76;100.00;95076.22;5070058;28;20269;-68
2023/09/20 03:37:43;;;;;;;16.33;8.05;;;;;;;17.70;100.00;95070.88;5070098;28;20194;-68
2023/09/20 03:40:17;;;;;;;12.85;7.03;;;;;;;17.66;100.00;95067.06;5070038;28;20179;-68
2023/09/20 03:42:46;;;;;;;11.80;6.57;;;;;;;17.62;100.00;95060.66;5070072;28;20178;-68
2023/09/20 03:45:14;;;;;;;12.52;6.30;;;;;;;17.62;99.38;95063.31;5069578;28;20174;-68
2023/09/20 03:47:53;;;;;;;13.30;6.68;;;;;;;17.62;99.65;95071.31;5069342;28;20201;-68
2023/09/20 03:50:19;;;;;;;21.52;8.63;;;;;;;17.45;100.00;95065.22;5068754;28;20410;-68
2023/09/20 03:52:46;;;;;;;12.88;8.30;;;;;;;17.40;100.00;95059.81;5069379;28;20244;-68
2023/09/20 03:55:12;;;;;;;17.92;8.27;;;;;;;17.47;100.00;95065.75;5069561;28;20171;-68
2023/09/20 03:57:38;;;;;;;16.20;8.30;;;;;;;17.48;100.00;95074.53;5069507;28;20177;-68
2023/09/20 04:00:11;;;;;;;25.98;9.18;;;;;;;17.44;100.00;95060.94;5069787;28;20194;-68
2023/09/20 04:02:38;;;;;;;18.15;9.20;;;;;;;17.55;100.00;95076.00;5069191;28;20613;-68
2023/09/20 04:05:22;;;;;;;18.85;8.43;;;;;;;17.58;100.00;95062.16;5069457;28;20174;-68
2023/09/20 04:07:48;;;;;;;15.70;7.90;;;;;;;17.58;99.97;95074.66;5069398;28;20255;-68
2023/09/20 04:10:17;;;;;;;15.65;8.50;;;;;;;17.62;99.74;95073.16;5069215;28;20651;-68
2023/09/20 04:12:43;;;;;;;16.20;8.95;;;;;;;17.51;99.67;95056.22;5069464;28;20281;-68
2023/09/20 04:15:09;;;;;;;19.65;9.93;;;;;;;17.47;100.00;95049.78;5069618;28;20743;-68
2023/09/20 04:17:35;;;;;;;18.90;8.55;;;;;;;17.62;100.00;95068.66;5069870;28;20580;-68
2023/09/20 04:20:05;;;;;;;17.95;9.23;;;;;;;17.64;100.00;95063.84;5068791;28;20525;-68
2023/09/20 04:22:31;;;;;;;14.20;8.00;;;;;;;17.67;99.39;95066.03;5069504;28;20210;-68
2023/09/20 04:25:00;;;;;;;16.45;9.30;;;;;;;17.71;99.46;95069.81;5069317;28;20190;-68
2023/09/20 04:27:28;;;;;;;15.15;8.35;;;;;;;17.60;99.84;95049.41;5069133;28;20206;-68
2023/09/20 04:29:53;;;;;;;16.98;9.70;;;;;;;17.66;99.26;95052.94;5069359;28;20194;-68
2023/09/20 04:32:19;;;;;;;17.83;9.85;;;;;;;17.72;98.94;95073.28;5068029;28;20229;-68
2023/09/20 04:34:45;;;;;;;20.38;9.43;;;;;;;17.71;99.37;95079.66;5069188;28;20179;-67
2023/09/20 04:37:12;;;;;;;16.50;9.77;;;;;;;17.70;99.24;95073.53;5069197;28;20543;-68
2023/09/20 04:39:38;;;;;;;19.23;9.30;;;;;;;17.71;99.46;95079.66;5068489;28;20849;-68
2023/09/20 04:42:07;;;;;;;17.45;9.45;;;;;;;17.75;99.75;95079.94;5068299;28;20619;-68
2023/09/20 04:44:32;;;;;;;19.35;10.00;;;;;;;17.77;99.51;95075.19;5068865;28;20182;-68
2023/09/20 04:46:58;;;;;;;20.48;11.65;;;;;;;17.73;99.89;95083.66;5068914;28;20166;-68
2023/09/20 04:49:23;;;;;;;23.33;11.52;;;;;;;17.81;99.74;95084.28;5068801;28;20619;-68
2023/09/20 04:51:49;;;;;;;19.20;10.88;;;;;;;17.70;99.78;95059.41;5068703;28;20638;-68
2023/09/20 04:54:15;;;;;;;21.98;12.50;;;;;;;17.86;100.00;95079.81;5069330;28;20227;-68
2023/09/20 04:56:47;;;;;;;25.15;14.60;;;;;;;17.89;99.00;95084.66;5069513;28;20174;-68
2023/09/20 04:59:14;;;;;;;21.77;13.43;;;;;;;17.82;98.88;95088.53;5072051;28;20213;-68
2023/09/20 05:01:42;;;;;;;22.15;13.82;;;;;;;17.83;98.76;95095.47;5073125;28;20170;-68
2023/09/20 05:04:07;;;;;;;24.00;15.02;;;;;;;17.86;99.06;95084.34;5072719;28;20182;-68
2023/09/20 05:06:33;;;;;;;24.55;13.63;;;;;;;17.90;99.24;95090.78;5072974;28;20677;-68
2023/09/20 05:08:58;;;;;;;22.02;12.25;;;;;;;17.80;99.25;95070.16;5072685;28;20212;-68
2023/09/20 05:11:24;;;;;;;22.70;13.60;;;;;;;17.95;99.58;95093.50;5072578;28;20645;-68
2023/09/20 05:13:52;;;;;;;19.77;12.35;;;;;;;17.98;99.17;95093.81;5072733;28;20175;-68
2023/09/20 05:16:17;;;;;;;24.83;14.27;;;;;;;18.01;99.06;95092.47;5072640;28;20650;-68
2023/09/20 05:18:43;;;;;;;20.65;13.52;;;;;;;18.04;99.01;95099.97;5072881;28;20178;-68
2023/09/20 05:21:09;;;;;;;21.58;13.05;;;;;;;18.00;98.13;95096.19;5072493;28;20175;-69
2023/09/20 05:23:35;;;;;;;20.75;13.18;;;;;;;18.06;98.04;95103.22;5071009;28;20186;-68
2023/09/20 05:26:01;;;;;;;24.13;13.85;;;;;;;18.03;98.52;95112.50;5072306;28;20189;-68
2023/09/20 05:28:26;;;;;;;23.17;14.18;;;;;;;18.04;98.37;95106.13;5072303;28;20306;-68
2023/09/20 05:30:51;;;;;;;24.17;14.45;;;;;;;18.10;98.38;95113.09;5070462;28;20778;-68
2023/09/20 05:33:17;;;;;;;20.13;13.32;;;;;;;18.08;98.08;95109.06;5072483;28;20185;-68
2023/09/20 05:35:43;;;;;;;20.38;13.50;;;;;;;17.88;98.18;95095.56;5072393;28;20217;-68
2023/09/20 05:38:11;;;;;;;20.80;13.25;;;;;;;17.95;98.44;95120.13;5072277;28;20631;-68
2023/09/20 05:40:37;;;;;;;20.83;14.45;;;;;;;17.97;98.54;95115.38;5072177;28;20170;-68
2023/09/20 05:43:03;;;;;;;20.07;14.10;;;;;;;17.57;99.20;95120.97;5071561;28;20516;-68
2023/09/20 05:45:34;;;;;;;25.00;16.00;;;;;;;17.43;99.74;95120.53;5071230;28;20421;-68
2023/09/20 05:48:01;;;;;;;22.10;13.90;;;;;;;17.51;99.87;95127.28;5072103;28;20416;-68
2023/09/20 05:50:35;;;;;;;24.27;14.63;;;;;;;17.65;99.74;95132.03;5070809;28;20633;-68
2023/09/20 05:53:06;;;;;;;22.55;14.43;;;;;;;17.77;99.70;95133.78;5072043;28;20190;-68
2023/09/20 05:55:43;;;;;;;20.25;12.65;;;;;;;17.86;100.00;95132.28;5071901;28;20185;-68
2023/09/20 05:58:09;;;;;;;18.63;11.65;;;;;;;17.88;99.63;95133.66;5071895;28;20932;-68
2023/09/20 06:00:35;;;;;;;20.48;12.68;;;;;;;17.89;99.71;95143.25;5071797;28;20175;-68
2023/09/20 06:03:04;;;;;;;18.25;13.00;;;;;;;17.95;99.27;95136.13;5071711;28;20648;-68
2023/09/20 06:05:31;;;;;;;25.15;15.55;;;;;;;17.93;99.85;95132.88;5071003;28;20549;-68
2023/09/20 06:07:57;;;;;;;20.35;14.32;;;;;;;18.03;98.98;95143.66;5071801;28;20538;-68
2023/09/20 06:10:23;;;;;;;20.73;13.65;;;;;;;18.10;98.18;95139.75;5071410;28;20197;-68
2023/09/20 06:12:52;;;;;;;23.77;14.45;;;;;;;18.08;98.30;95135.72;5071541;28;20276;-69
2023/09/20 06:15:17;;;;;;;22.38;15.07;;;;;;;18.01;98.00;95132.44;5070766;28;20184;-68
2023/09/20 06:17:43;;;;;;;24.00;15.45;;;;;;;18.00;98.24;95138.81;5065713;28;20563;-69
2023/09/20 06:20:16;;;;;;;24.85;16.50;;;;;;;18.03;98.93;95133.00;5070028;28;20174;-69
2023/09/20 06:22:42;;;;;;;25.02;15.07;;;;;;;18.06;98.40;95136.00;5070091;28;20214;-69
2023/09/20 06:25:08;;;;;;;29.00;16.73;;;;;;;18.12;97.59;95144.84;5070533;28;20186;-69
2023/09/20 06:27:34;;;;;;;22.95;15.18;;;;;;;18.06;97.84;95129.84;5069054;28;20653;-70
2023/09/20 06:30:05;;;;;;;23.00;14.68;;;;;;;18.27;97.72;95147.66;5064595;28;20880;-70
2023/09/20 06:32:33;;;;;;;23.33;15.00;;;;;;;18.39;97.55;95148.31;5070075;28;20193;-70
2023/09/20 06:35:02;;;;;;;25.92;15.95;;;;;;;18.44;95.83;95135.03;5068451;28;20197;-68
2023/09/20 06:37:27;;;;;;;29.02;16.55;;;;;;;18.51;95.29;95150.03;5069866;28;20178;-69
2023/09/20 06:39:55;;;;;;;24.75;15.30;;;;;;;18.36;94.66;95143.47;5070153;28;20174;-70
2023/09/20 06:42:22;;;;;;;25.40;16.50;;;;;;;18.44;95.40;95152.88;5068799;28;20594;-70
2023/09/20 06:44:48;;;;;;;22.60;15.57;;;;;;;18.51;96.03;95156.13;5069834;28;20178;-70
2023/09/20 06:47:14;;;;;;;23.70;16.33;;;;;;;18.63;96.22;95150.69;5070293;28;20190;-69
2023/09/20 06:49:39;;;;;;;21.77;15.52;;;;;;;18.77;96.19;95149.19;5069773;28;20611;-69
2023/09/20 06:52:05;;;;;;;27.13;16.15;;;;;;;18.82;95.28;95149.25;5069683;28;20197;-70
2023/09/20 06:54:35;;;;;;;23.00;15.05;;;;;;;18.68;94.50;95156.84;5070183;28;20334;-70
2023/09/20 06:57:03;;;;;;;21.67;15.18;;;;;;;18.65;94.74;95143.25;5069973;28;20216;-70
2023/09/20 06:59:31;;;;;;;21.02;14.55;;;;;;;18.77;94.38;95162.53;5069482;28;20178;-68
2023/09/20 07:01:57;;;;;;;25.08;15.00;;;;;;;18.91;94.29;95170.94;5069303;28;20597;-68
2023/09/20 07:04:23;;;;;;;21.88;14.85;;;;;;;19.09;94.14;95170.53;5069386;28;20286;-68
2023/09/20 07:06:48;;;;;;;21.77;15.27;;;;;;;19.30;94.32;95174.13;5070206;28;20269;-69
2023/09/20 07:09:15;;;;;;;21.95;15.60;;;;;;;19.38;92.57;95170.97;5069235;28;20265;-69
2023/09/20 07:11:41;;;;;;;28.00;16.55;;;;;;;19.44;91.32;95172.66;5070243;28;20190;-69
2023/09/20 07:14:06;;;;;;;25.80;14.75;;;;;;;19.56;92.71;95171.41;5070784;28;20178;-70
2023/09/20 07:16:36;;;;;;;26.92;14.85;;;;;;;19.64;91.14;95174.63;5070329;28;20174;-70
2023/09/20 07:19:05;;;;;;;28.40;14.55;;;;;;;19.64;90.62;95178.13;5070364;28;20231;-70
2023/09/20 07:21:33;;;;;;;25.63;15.57;;;;;;;19.68;90.71;95181.88;5067427;28;20218;-69
2023/09/20 07:23:59;;;;;;;18.45;13.75;;;;;;;19.69;89.03;95188.03;5068951;28;20186;-69
2023/09/20 07:26:26;;;;;;;22.73;13.68;;;;;;;19.75;88.48;95184.31;5069296;28;21989;-69
2023/09/20 07:28:51;;;;;;;25.02;15.20;;;;;;;19.82;89.31;95190.22;5069911;28;20197;-69
2023/09/20 07:31:21;;;;;;;26.25;15.95;;;;;;;20.00;90.16;95191.66;5069878;28;20194;-69
2023/09/20 07:33:48;;;;;;;29.75;15.65;;;;;;;20.12;89.78;95179.69;5070040;28;20190;-69
2023/09/20 07:36:13;;;;;;;26.50;15.20;;;;;;;20.16;88.52;95187.97;5069599;28;20655;-69
2023/09/20 07:38:38;;;;;;;26.92;15.98;;;;;;;20.33;89.72;95188.56;5069593;28;20181;-69
2023/09/20 07:41:17;;;;;;;29.48;16.25;;;;;;;20.58;88.71;95195.88;5069897;28;20323;-69
2023/09/20 07:43:47;;;;;;;28.95;16.38;;;;;;;20.77;85.60;95199.66;5069872;28;20246;-70
2023/09/20 07:46:13;;;;;;;31.67;16.25;;;;;;;20.96;86.14;95202.63;5069922;28;20839;-69
2023/09/20 07:48:50;;;;;;;22.98;14.30;;;;;;;21.13;84.59;95197.78;5069482;28;20174;-69
2023/09/20 07:51:23;;;;;;;22.27;14.25;;;;;;;21.68;86.07;95198.84;5069698;28;20193;-69
2023/09/20 07:53:53;;;;;;;20.30;12.85;;;;;;;22.39;82.33;95196.75;5069288;28;20186;-69
2023/09/20 07:56:19;;;;;;;19.77;13.43;;;;;;;22.71;78.71;95196.28;5069529;28;20178;-70
2023/09/20 07:58:44;;;;;;;20.85;12.15;;;;;;;22.77;77.80;95199.75;5069308;28;20187;-69
2023/09/20 08:01:18;;;;;;;19.27;12.68;;;;;;;22.83;75.34;95198.66;5069231;28;20257;-69
2023/09/20 08:03:53;;;;;;;19.13;12.20;;;;;;;22.78;75.94;95201.38;5067309;28;20185;-69
2023/09/20 08:06:24;;;;;;;22.80;12.70;;;;;;;22.67;75.56;95195.22;5069189;28;20717;-69
2023/09/20 08:08:49;;;;;;;22.40;12.25;;;;;;;22.59;77.20;95191.25;5069543;28;20243;-69
2023/09/20 08:11:14;;;;;;;17.83;12.52;;;;;;;22.81;76.84;95192.75;5069138;28;20569;-69
2023/09/20 08:13:40;;;;;;;20.60;12.93;;;;;;;23.09;74.94;95175.88;5069329;28;20185;-70
2023/09/20 08:16:09;;;;;;;24.33;12.85;;;;;;;23.72;74.66;95196.56;5069439;28;20566;-70
2023/09/20 08:21:20;;;;;;;21.10;12.38;;;;;;;24.58;69.59;95188.28;5069642;28;20224;-69
2023/09/20 09:02:17;;;;;;;13.73;9.45;;;;;;;26.35;64.25;95170.22;5072089;28;20669;-70
2023/09/20 09:04:53;;;;;;;15.50;11.10;;;;;;;26.14;62.01;95161.69;5071924;28;20482;-70
2023/09/20 09:07:19;;;;;;;16.83;8.90;;;;;;;26.00;63.26;95147.41;5072101;28;20553;-70
2023/09/20 09:09:49;;;;;;;13.30;9.38;;;;;;;26.06;64.22;95165.91;5072275;28;20289;-70
2023/09/20 09:12:15;;;;;;;20.77;9.55;;;;;;;26.07;62.96;95167.50;5072090;28;20534;-70
2023/09/20 09:14:41;;;;;;;16.27;9.73;;;;;;;25.99;63.04;95159.31;5072060;28;20181;-70
2023/09/20 09:17:08;;;;;;;13.50;9.18;;;;;;;25.87;63.21;95159.81;5071655;28;20186;-70
2023/09/20 09:19:35;;;;;;;15.65;8.82;;;;;;;26.07;62.78;95164.00;5072924;28;20267;-70
2023/09/20 09:22:04;;;;;;;13.65;9.00;;;;;;;26.04;62.13;95161.91;5072383;28;20267;-70
2023/09/20 09:24:47;;;;;;;11.55;7.60;;;;;;;26.16;63.54;95162.19;5071151;28;20534;-70
2023/09/20 09:27:14;;;;;;;12.73;8.40;;;;;;;26.25;61.11;95158.50;5071909;28;20249;-70
2023/09/20 09:29:42;;;;;;;19.65;9.82;;;;;;;26.21;61.54;95159.38;5071772;28;20177;-70
2023/09/20 09:32:07;;;;;;;18.63;9.45;;;;;;;25.71;61.80;95158.50;5071597;28;20292;-70
2023/09/20 09:34:33;;;;;;;11.20;8.10;;;;;;;25.02;63.95;95147.53;5071709;28;20625;-70
2023/09/20 09:36:58;;;;;;;14.30;6.30;;;;;;;24.76;65.69;95151.69;5071590;28;20178;-70
2023/09/20 09:39:26;;;;;;;11.55;7.38;;;;;;;24.90;67.37;95141.78;5071426;28;20178;-70
2023/09/20 09:41:53;;;;;;;13.70;7.22;;;;;;;25.24;63.72;95143.41;5071409;28;20182;-70
2023/09/20 09:44:20;;;;;;;10.60;6.78;;;;;;;25.28;63.46;95122.84;5070966;28;20189;-70
2023/09/20 09:46:45;;;;;;;10.60;6.53;;;;;;;25.42;63.33;95140.66;5071521;28;20174;-70
2023/09/20 09:49:12;;;;;;;9.30;5.90;;;;;;;25.53;65.62;95142.06;5071410;28;20561;-70
2023/09/20 09:51:58;;;;;;;7.20;5.57;;;;;;;25.82;62.18;95132.94;5071531;28;20193;-70
2023/09/20 09:54:24;;;;;;;10.00;5.20;;;;;;;26.00;62.59;95140.13;5071002;28;20205;-70
2023/09/20 09:56:49;;;;;;;9.00;4.95;;;;;;;26.08;62.39;95133.22;5071323;28;20174;-70
2023/09/20 09:59:15;;;;;;;9.32;5.75;;;;;;;26.17;62.33;95123.31;5071217;28;20170;-70
2023/09/20 10:01:42;;;;;;;11.05;6.88;;;;;;;26.18;60.75;95124.91;5071257;28;20263;-70
2023/09/20 10:04:13;;;;;;;8.13;5.60;;;;;;;26.11;60.02;95124.53;5071199;28;20178;-70
2023/09/20 10:06:55;;;;;;;14.40;5.55;;;;;;;25.99;60.64;95132.31;5071107;28;20170;-70
2023/09/20 10:09:29;;;;;;;8.57;4.78;;;;;;;25.75;61.51;95138.72;5071195;28;20185;-70
2023/09/20 10:11:55;;;;;;;8.07;4.53;;;;;;;25.55;60.16;95128.28;5071159;28;20725;-70
2023/09/20 10:14:22;;;;;;;11.13;3.90;;;;;;;25.21;63.73;95131.31;5071432;28;20239;-70
2023/09/20 10:16:48;;;;;;;4.30;3.40;;;;;;;25.33;63.10;95125.47;5071245;28;20175;-70
2023/09/20 10:19:15;;;;;;;6.97;3.38;;;;;;;25.43;58.75;95119.88;5070827;28;20248;-70
2023/09/20 10:22:09;;;;;;;7.53;3.50;;;;;;;25.58;61.25;95116.91;5070749;28;20234;-70
2023/09/20 10:24:58;;;;;;;5.28;2.58;;;;;;;25.74;61.49;95112.06;5070831;28;20179;-70
2023/09/20 10:27:28;;;;;;;5.60;2.90;;;;;;;25.84;60.25;95111.84;5070704;28;20178;-70
2023/09/20 10:30:10;;;;;;;7.63;3.63;;;;;;;25.65;58.34;95113.84;5070533;28;20182;-70
2023/09/20 10:32:47;;;;;;;5.63;2.92;;;;;;;25.69;59.38;95107.53;5070624;28;20190;-70
2023/09/20 10:35:22;;;;;;;6.82;3.53;;;;;;;25.74;59.61;95106.66;5069271;28;20936;-70
2023/09/20 10:38:17;;;;;;;6.68;3.72;;;;;;;25.72;60.32;95103.44;5070654;28;20162;-70
2023/09/20 10:40:50;;;;;;;7.10;3.80;;;;;;;25.80;60.14;95092.75;5070539;28;20178;-70
2023/09/20 10:43:20;;;;;;;6.07;3.30;;;;;;;25.73;57.29;95091.56;5069035;28;20669;-70
2023/09/20 10:45:51;;;;;;;3.55;2.90;;;;;;;25.74;59.59;95088.56;5070406;28;20822;-70
2023/09/20 10:48:27;;;;;;;6.20;3.13;;;;;;;25.78;57.88;95083.34;5070188;28;20542;-70
2023/09/20 10:50:57;;;;;;;3.03;2.42;;;;;;;25.86;56.00;95075.34;5070236;28;20220;-70
2023/09/20 10:53:43;;;;;;;5.57;3.03;;;;;;;25.88;56.21;95075.06;5070145;28;20443;-70
2023/09/20 10:56:10;;;;;;;4.43;2.90;;;;;;;25.90;55.85;95070.97;5069425;28;20185;-70
2023/09/20 10:58:38;;;;;;;4.60;2.67;;;;;;;25.80;55.72;95055.00;5070118;28;20180;-70
2023/09/20 11:01:06;;;;;;;3.22;2.42;;;;;;;25.90;53.84;95057.47;5069481;28;20206;-70
2023/09/20 11:03:32;;;;;;;4.43;2.35;;;;;;;25.92;54.48;95057.19;5069604;28;20182;-70
2023/09/20 11:05:58;;;;;;;3.80;2.05;;;;;;;25.89;53.69;95053.19;5069562;28;20251;-70
2023/09/20 11:08:24;;;;;;;5.78;2.53;;;;;;;25.87;52.90;95049.97;5069927;28;20712;-70
2023/09/20 11:10:50;;;;;;;3.75;2.10;;;;;;;25.73;53.84;95051.09;5069608;28;20656;-70
2023/09/20 11:13:19;;;;;;;5.05;2.80;;;;;;;25.61;54.04;95037.31;5069471;28;20198;-70
2023/09/20 11:15:48;;;;;;;5.45;2.55;;;;;;;25.79;53.89;95047.19;5069333;28;20182;-70
2023/09/20 11:18:19;;;;;;;9.93;3.17;;;;;;;25.83;53.55;95048.19;5069528;28;20177;-70
2023/09/20 11:20:46;;;;;;;5.60;2.40;;;;;;;25.85;53.79;95041.41;5069610;28;20181;-70
2023/09/20 11:23:13;;;;;;;9.82;2.60;;;;;;;25.82;55.61;95025.03;5069477;28;20214;-70
2023/09/20 11:25:39;;;;;;;6.05;2.85;;;;;;;25.87;54.99;95016.81;5069776;28;20664;-70
2023/09/20 11:28:07;;;;;;;6.35;2.50;;;;;;;26.06;54.45;95024.75;5069731;28;20182;-70
2023/09/20 11:30:33;;;;;;;9.45;2.45;;;;;;;26.12;53.02;95020.88;5069482;28;20170;-70
2023/09/20 11:32:58;;;;;;;8.25;2.97;;;;;;;26.09;53.56;95024.16;5069200;28;20194;-70
2023/09/20 11:35:34;;;;;;;6.57;3.15;;;;;;;26.04;52.86;95022.38;5069416;28;20610;-70
2023/09/20 11:38:04;;;;;;;3.70;2.25;;;;;;;26.02;54.52;95019.19;5069556;28;20182;-70
2023/09/20 11:40:35;;;;;;;5.93;2.58;;;;;;;26.01;56.87;95001.41;5069547;28;20655;-70
2023/09/20 11:43:02;;;;;;;13.40;3.17;;;;;;;26.13;56.34;95015.13;5069289;28;20179;-70
2023/09/20 11:45:28;;;;;;;6.47;2.75;;;;;;;26.26;53.94;95008.16;5069220;28;20178;-69
2023/09/20 11:47:54;;;;;;;5.40;2.22;;;;;;;26.34;52.98;95012.00;5067883;28;20190;-69
2023/09/20 11:50:22;;;;;;;9.57;2.60;;;;;;;26.35;53.56;95000.91;5069530;28;20204;-69
2023/09/20 11:52:48;;;;;;;7.90;2.45;;;;;;;26.42;51.76;95011.28;5069267;28;20681;-69
2023/09/20 11:55:15;;;;;;;7.18;2.70;;;;;;;26.40;50.96;95003.47;5069027;28;20225;-69
2023/09/20 11:57:42;;;;;;;11.07;3.50;;;;;;;26.37;50.94;94998.72;5069297;28;20214;-69
2023/09/20 12:00:11;;;;;;;6.95;2.85;;;;;;;26.42;51.88;94995.88;5069113;28;20646;-70
2023/09/20 12:02:37;;;;;;;3.72;2.65;;;;;;;26.46;51.98;94991.47;5068763;28;20219;-69
2023/09/20 12:05:03;;;;;;;7.03;2.97;;;;;;;26.50;52.31;94995.13;5069043;28;20231;-69
2023/09/20 12:07:28;;;;;;;6.68;2.80;;;;;;;26.56;51.89;94999.31;5068929;28;20179;-70
2023/09/20 12:09:55;;;;;;;11.32;2.72;;;;;;;26.64;53.33;94995.06;5068716;28;20611;-69
2023/09/20 12:12:20;;;;;;;9.73;2.92;;;;;;;26.69;53.10;94986.84;5069000;28;20216;-70
2023/09/20 12:14:45;;;;;;;6.68;2.90;;;;;;;26.77;52.50;94990.69;5068991;28;20190;-70
2023/09/20 12:17:11;;;;;;;4.88;2.85;;;;;;;26.85;52.15;94992.66;5069110;28;20178;-69
2023/09/20 12:19:36;;;;;;;5.88;2.58;;;;;;;26.86;52.69;94986.13;5068851;28;20269;-69
2023/09/20 12:22:02;;;;;;;8.35;2.50;;;;;;;26.91;52.35;94983.31;5068764;28;20304;-69
2023/09/20 12:24:28;;;;;;;8.20;2.78;;;;;;;26.96;50.53;94986.72;5068859;28;20178;-69